This is the latest recevied weather packets stored in our database for station/object SAVIL. If no packets are shown the sender has not sent any weather packets the latest 1 day(s).
| Time | Temp. | Humidity | Pressure | Rain* | Wind** | Luminosity | Snow |
|---|---|---|---|---|---|---|---|
| 1777988834 | 6.11° C | 50% | 999.6 hPa | 0 mm | 3.13 m/s, 253° | - | - |
| 1777987633 | 7.78° C | 44% | 999.2 hPa | 0 mm | 3.13 m/s, 290° | - | - |
| 1777985233 | 6.67° C | 56% | 999.1 hPa | 0 mm | 4.92 m/s, 330° | - | - |
| 1777984033 | 8.33° C | 46% | 998.5 hPa | 0 mm | 4.47 m/s, 280° | - | - |
| 1777982833 | 7.78° C | 49% | 998.8 hPa | 0 mm | 4.92 m/s, 264° | - | - |
| 1777981633 | 8.33° C | 43% | 998.1 hPa | 0 mm | 4.47 m/s, 275° | - | - |
| 1777980433 | 8.33° C | 44% | 997.7 hPa | 0 mm | 4.47 m/s, 293° | - | - |
| 1777979233 | 8.33° C | 45% | 997.5 hPa | 0 mm | 4.47 m/s, 285° | - | - |
| 1777978033 | 6.11° C | 63% | 997.6 hPa | 0 mm | 4.92 m/s, 293° | - | - |
| 1777976833 | 6.67° C | 59% | 997.1 hPa | 0 mm | 4.02 m/s, 251° | - | - |
| 1777975633 | 6.67° C | 65% | 997 hPa | 0 mm | 4.02 m/s, 263° | - | - |
| 1777974433 | 6.67° C | 71% | 997 hPa | 0 mm | 4.02 m/s, 227° | - | - |
| 1777973233 | 6.11° C | 74% | 997.1 hPa | 0 mm | 3.13 m/s, 233° | - | - |
| 1777972033 | 5.56° C | 79% | 997.1 hPa | 0 mm | 4.02 m/s, 239° | - | - |
| 1777970833 | 4.44° C | 81% | 997 hPa | 0.76 mm | 3.13 m/s, 242° | - | - |
| 1777969632 | 3.89° C | 85% | 997.2 hPa | 0.76 mm | 3.13 m/s, 234° | - | - |
| 1777968432 | 3.33° C | 88% | 997 hPa | 0.76 mm | 2.68 m/s, 196° | - | - |
| 1777967232 | 2.78° C | 89% | 997.5 hPa | 0.25 mm | 3.13 m/s, 235° | - | - |
| 1777966032 | 2.78° C | 87% | 997.5 hPa | 0.25 mm | 3.13 m/s, 286° | - | - |
| 1777964832 | 3.89° C | 82% | 997.3 hPa | 0.25 mm | 4.02 m/s, 319° | - | - |
| 1777963632 | 4.44° C | 79% | 997.1 hPa | 0 mm | 3.58 m/s, 303° | - | - |
* Rain latest hour (hover to see other rain measurements)
** Current wind speed in m/s (hover to see current wind gust speed)